sensor_id;sensor_type;location;lat;lon;timestamp;pressure;altitude;pressure_sealevel;temperature;humidity
40574;BME280;26283;49.020;8.644;2022-11-20T00:01:17;98813.88;;;10.92;59.92
40574;BME280;26283;49.020;8.644;2022-11-20T00:03:44;98800.41;;;10.92;59.92
40574;BME280;26283;49.020;8.644;2022-11-20T00:06:11;98806.84;;;10.91;59.93
40574;BME280;26283;49.020;8.644;2022-11-20T00:08:37;98798.75;;;10.91;59.94
40574;BME280;26283;49.020;8.644;2022-11-20T00:11:14;98797.94;;;10.91;59.95
40574;BME280;26283;49.020;8.644;2022-11-20T00:13:40;98800.03;;;10.89;59.99
40574;BME280;26283;49.020;8.644;2022-11-20T00:16:07;98794.44;;;10.90;59.98
40574;BME280;26283;49.020;8.644;2022-11-20T00:18:34;98797.34;;;10.89;60.00
40574;BME280;26283;49.020;8.644;2022-11-20T00:21:04;98794.66;;;10.89;60.01
40574;BME280;26283;49.020;8.644;2022-11-20T00:23:29;98792.78;;;10.89;60.03
40574;BME280;26283;49.020;8.644;2022-11-20T00:25:55;98794.66;;;10.89;60.03
40574;BME280;26283;49.020;8.644;2022-11-20T00:28:20;98807.31;;;10.88;60.04
40574;BME280;26283;49.020;8.644;2022-11-20T00:30:46;98800.88;;;10.89;60.05
40574;BME280;26283;49.020;8.644;2022-11-20T00:33:11;98801.09;;;10.88;60.05
40574;BME280;26283;49.020;8.644;2022-11-20T00:35:36;98792.19;;;10.87;60.05
40574;BME280;26283;49.020;8.644;2022-11-20T00:38:02;98800.28;;;10.87;60.06
40574;BME280;26283;49.020;8.644;2022-11-20T00:40:27;98804.03;;;10.86;60.07
40574;BME280;26283;49.020;8.644;2022-11-20T00:42:52;98800.50;;;10.86;60.08
40574;BME280;26283;49.020;8.644;2022-11-20T00:45:18;98800.50;;;10.86;60.09
40574;BME280;26283;49.020;8.644;2022-11-20T00:47:43;98797.81;;;10.86;60.10
40574;BME280;26283;49.020;8.644;2022-11-20T00:50:08;98800.50;;;10.86;60.12
40574;BME280;26283;49.020;8.644;2022-11-20T00:52:34;98805.06;;;10.85;60.14
40574;BME280;26283;49.020;8.644;2022-11-20T00:54:59;98808.81;;;10.84;60.15
40574;BME280;26283;49.020;8.644;2022-11-20T00:57:25;98816.91;;;10.84;60.18
40574;BME280;26283;49.020;8.644;2022-11-20T00:59:50;98808.81;;;10.84;60.19
40574;BME280;26283;49.020;8.644;2022-11-20T01:02:15;98808.81;;;10.84;60.21
40574;BME280;26283;49.020;8.644;2022-11-20T01:04:42;98808.00;;;10.84;60.24
40574;BME280;26283;49.020;8.644;2022-11-20T01:07:07;98803.44;;;10.84;60.25
40574;BME280;26283;49.020;8.644;2022-11-20T01:09:33;98813.38;;;10.84;60.29
40574;BME280;26283;49.020;8.644;2022-11-20T01:11:58;98807.19;;;10.83;60.31
40574;BME280;26283;49.020;8.644;2022-11-20T01:14:24;98807.19;;;10.83;60.33
40574;BME280;26283;49.020;8.644;2022-11-20T01:16:50;98803.66;;;10.83;60.36
40574;BME280;26283;49.020;8.644;2022-11-20T01:19:19;98802.59;;;10.84;60.37
40574;BME280;26283;49.020;8.644;2022-11-20T01:21:47;98801.78;;;10.83;60.38
40574;BME280;26283;49.020;8.644;2022-11-20T01:24:15;98803.44;;;10.84;60.41
40574;BME280;26283;49.020;8.644;2022-11-20T01:26:43;98801.78;;;10.83;60.42
40574;BME280;26283;49.020;8.644;2022-11-20T01:29:13;98808.00;;;10.84;60.42
40574;BME280;26283;49.020;8.644;2022-11-20T01:31:39;98802.38;;;10.85;60.45
40574;BME280;26283;49.020;8.644;2022-11-20T01:34:17;98810.47;;;10.85;60.45
40574;BME280;26283;49.020;8.644;2022-11-20T01:36:43;98806.13;;;10.84;60.47
40574;BME280;26283;49.020;8.644;2022-11-20T01:39:18;98798.03;;;10.84;60.46
40574;BME280;26283;49.020;8.644;2022-11-20T01:41:44;98798.03;;;10.84;60.50
40574;BME280;26283;49.020;8.644;2022-11-20T01:44:51;98799.69;;;10.85;60.50
40574;BME280;26283;49.020;8.644;2022-11-20T01:47:25;98798.03;;;10.84;60.56
40574;BME280;26283;49.020;8.644;2022-11-20T01:50:06;98796.41;;;10.83;60.56
40574;BME280;26283;49.020;8.644;2022-11-20T01:52:41;98803.44;;;10.84;60.60
40574;BME280;26283;49.020;8.644;2022-11-20T01:55:11;98799.69;;;10.85;60.62
40574;BME280;26283;49.020;8.644;2022-11-20T01:57:38;98795.34;;;10.84;60.65
40574;BME280;26283;49.020;8.644;2022-11-20T02:00:11;98795.34;;;10.84;60.66
40574;BME280;26283;49.020;8.644;2022-11-20T02:02:37;98798.03;;;10.84;60.70
40574;BME280;26283;49.020;8.644;2022-11-20T02:05:12;98798.84;;;10.85;60.71
40574;BME280;26283;49.020;8.644;2022-11-20T02:07:40;98798.03;;;10.84;60.73
40574;BME280;26283;49.020;8.644;2022-11-20T02:10:06;98793.47;;;10.85;60.75
40574;BME280;26283;49.020;8.644;2022-11-20T02:12:31;98792.66;;;10.84;60.77
40574;BME280;26283;49.020;8.644;2022-11-20T02:15:15;98788.06;;;10.85;60.79
40574;BME280;26283;49.020;8.644;2022-11-20T02:17:41;98788.91;;;10.85;60.79
40574;BME280;26283;49.020;8.644;2022-11-20T02:20:07;98788.06;;;10.85;60.83
40574;BME280;26283;49.020;8.644;2022-11-20T02:22:39;98783.50;;;10.85;60.85
40574;BME280;26283;49.020;8.644;2022-11-20T02:25:10;98784.56;;;10.84;60.88
40574;BME280;26283;49.020;8.644;2022-11-20T02:27:36;98789.94;;;10.84;60.89
40574;BME280;26283;49.020;8.644;2022-11-20T02:30:04;98782.69;;;10.85;60.92
40574;BME280;26283;49.020;8.644;2022-11-20T02:32:35;98783.50;;;10.85;60.95
40574;BME280;26283;49.020;8.644;2022-11-20T02:37:57;98785.38;;;10.85;61.05
40574;BME280;26283;49.020;8.644;2022-11-20T02:40:23;98778.12;;;10.85;61.00
40574;BME280;26283;49.020;8.644;2022-11-20T02:42:53;98784.34;;;10.86;61.04
40574;BME280;26283;49.020;8.644;2022-11-20T02:45:19;98775.66;;;10.84;61.07
40574;BME280;26283;49.020;8.644;2022-11-20T02:47:45;98772.97;;;10.84;61.07
40574;BME280;26283;49.020;8.644;2022-11-20T02:50:10;98781.87;;;10.84;61.09
40574;BME280;26283;49.020;8.644;2022-11-20T02:52:35;98781.87;;;10.84;61.12
40574;BME280;26283;49.020;8.644;2022-11-20T02:55:01;98775.66;;;10.84;61.14
40574;BME280;26283;49.020;8.644;2022-11-20T02:57:26;98772.13;;;10.83;61.14
40574;BME280;26283;49.020;8.644;2022-11-20T02:59:51;98780.81;;;10.85;61.16
40574;BME280;26283;49.020;8.644;2022-11-20T03:02:17;98777.28;;;10.85;61.16
40574;BME280;26283;49.020;8.644;2022-11-20T03:04:42;98770.25;;;10.84;61.18
40574;BME280;26283;49.020;8.644;2022-11-20T03:07:08;98780.81;;;10.85;61.19
40574;BME280;26283;49.020;8.644;2022-11-20T03:09:33;98770.03;;;10.85;61.21
40574;BME280;26283;49.020;8.644;2022-11-20T03:11:59;98781.63;;;10.86;61.22
40574;BME280;26283;49.020;8.644;2022-11-20T03:14:24;98773.78;;;10.84;61.24
40574;BME280;26283;49.020;8.644;2022-11-20T03:16:49;98771.09;;;10.84;61.25
40574;BME280;26283;49.020;8.644;2022-11-20T03:19:15;98775.66;;;10.84;61.25
40574;BME280;26283;49.020;8.644;2022-11-20T03:21:40;98773.78;;;10.84;61.25
40574;BME280;26283;49.020;8.644;2022-11-20T03:24:06;98774.59;;;10.85;61.26
40574;BME280;26283;49.020;8.644;2022-11-20T03:26:32;98771.09;;;10.84;61.27
40574;BME280;26283;49.020;8.644;2022-11-20T03:28:59;98766.50;;;10.85;61.28
40574;BME280;26283;49.020;8.644;2022-11-20T03:31:31;98768.38;;;10.84;61.27
40574;BME280;26283;49.020;8.644;2022-11-20T03:33:58;98772.97;;;10.84;61.28
40574;BME280;26283;49.020;8.644;2022-11-20T03:36:26;98770.25;;;10.84;61.27
40574;BME280;26283;49.020;8.644;2022-11-20T03:38:56;98764.88;;;10.84;61.28
40574;BME280;26283;49.020;8.644;2022-11-20T03:41:24;98770.25;;;10.84;61.29
40574;BME280;26283;49.020;8.644;2022-11-20T03:44:01;98770.03;;;10.85;61.29
40574;BME280;26283;49.020;8.644;2022-11-20T03:46:28;98764.03;;;10.83;61.32
40574;BME280;26283;49.020;8.644;2022-11-20T03:48:54;98772.13;;;10.83;61.30
40574;BME280;26283;49.020;8.644;2022-11-20T03:53:50;98773.78;;;10.84;61.31
40574;BME280;26283;49.020;8.644;2022-11-20T03:56:17;98773.78;;;10.84;61.29
40574;BME280;26283;49.020;8.644;2022-11-20T03:58:44;98757.84;;;10.83;61.30
40574;BME280;26283;49.020;8.644;2022-11-20T04:01:14;98764.03;;;10.83;61.30
40574;BME280;26283;49.020;8.644;2022-11-20T04:03:41;98765.13;;;10.82;61.31
40574;BME280;26283;49.020;8.644;2022-11-20T04:06:18;98760.53;;;10.83;61.29
40574;BME280;26283;49.020;8.644;2022-11-20T04:08:43;98765.69;;;10.84;61.30
40574;BME280;26283;49.020;8.644;2022-11-20T04:11:20;98767.56;;;10.84;61.28
40574;BME280;26283;49.020;8.644;2022-11-20T04:13:49;98767.81;;;10.82;61.28
40574;BME280;26283;49.020;8.644;2022-11-20T04:16:15;98760.31;;;10.84;61.27
40574;BME280;26283;49.020;8.644;2022-11-20T04:18:41;98758.66;;;10.83;61.27
40574;BME280;26283;49.020;8.644;2022-11-20T04:21:07;98756.22;;;10.82;61.27
40574;BME280;26283;49.020;8.644;2022-11-20T04:23:33;98755.97;;;10.83;61.28
40574;BME280;26283;49.020;8.644;2022-11-20T04:26:17;98756.78;;;10.84;61.27
40574;BME280;26283;49.020;8.644;2022-11-20T04:28:42;98751.66;;;10.82;61.29
40574;BME280;26283;49.020;8.644;2022-11-20T04:31:13;98747.06;;;10.83;61.24
40574;BME280;26283;49.020;8.644;2022-11-20T04:33:39;98755.97;;;10.83;61.26
40574;BME280;26283;49.020;8.644;2022-11-20T04:36:07;98759.47;;;10.84;61.25
40574;BME280;26283;49.020;8.644;2022-11-20T04:38:35;98751.66;;;10.82;61.25
40574;BME280;26283;49.020;8.644;2022-11-20T04:41:02;98763.22;;;10.83;61.24
40574;BME280;26283;49.020;8.644;2022-11-20T04:43:29;98749.75;;;10.83;61.24
40574;BME280;26283;49.020;8.644;2022-11-20T04:45:56;98751.66;;;10.82;61.24
40574;BME280;26283;49.020;8.644;2022-11-20T04:48:22;98748.97;;;10.82;61.24
40574;BME280;26283;49.020;8.644;2022-11-20T04:50:48;98751.66;;;10.82;61.24
40574;BME280;26283;49.020;8.644;2022-11-20T04:53:13;98746.25;;;10.82;61.23
40574;BME280;26283;49.020;8.644;2022-11-20T04:55:39;98747.06;;;10.83;61.22
40574;BME280;26283;49.020;8.644;2022-11-20T04:58:04;98751.66;;;10.82;61.22
40574;BME280;26283;49.020;8.644;2022-11-20T05:00:29;98747.06;;;10.83;61.21
40574;BME280;26283;49.020;8.644;2022-11-20T05:02:55;98748.97;;;10.82;61.21
40574;BME280;26283;49.020;8.644;2022-11-20T05:05:20;98745.44;;;10.82;61.20
40574;BME280;26283;49.020;8.644;2022-11-20T05:07:46;98748.97;;;10.82;61.20
40574;BME280;26283;49.020;8.644;2022-11-20T05:10:11;98751.66;;;10.82;61.20
40574;BME280;26283;49.020;8.644;2022-11-20T05:12:36;98747.31;;;10.81;61.20
40574;BME280;26283;49.020;8.644;2022-11-20T05:15:02;98744.63;;;10.81;61.20
40574;BME280;26283;49.020;8.644;2022-11-20T05:17:27;98741.94;;;10.81;61.19
40574;BME280;26283;49.020;8.644;2022-11-20T05:19:53;98739.22;;;10.81;61.19
40574;BME280;26283;49.020;8.644;2022-11-20T05:22:18;98741.09;;;10.81;61.19
40574;BME280;26283;49.020;8.644;2022-11-20T05:24:43;98732.19;;;10.80;61.19
40574;BME280;26283;49.020;8.644;2022-11-20T05:27:09;98742.75;;;10.82;61.20
40574;BME280;26283;49.020;8.644;2022-11-20T05:29:34;98742.97;;;10.80;61.20
40574;BME280;26283;49.020;8.644;2022-11-20T05:31:59;98749.19;;;10.81;61.20
40574;BME280;26283;49.020;8.644;2022-11-20T05:34:25;98746.50;;;10.81;61.19
40574;BME280;26283;49.020;8.644;2022-11-20T05:36:50;98740.50;;;10.79;61.19
40574;BME280;26283;49.020;8.644;2022-11-20T05:39:15;98737.59;;;10.80;61.18
40574;BME280;26283;49.020;8.644;2022-11-20T05:41:41;98737.59;;;10.80;61.19
40574;BME280;26283;49.020;8.644;2022-11-20T05:44:06;98741.94;;;10.81;61.19
40574;BME280;26283;49.020;8.644;2022-11-20T05:46:32;98736.75;;;10.80;61.18
40574;BME280;26283;49.020;8.644;2022-11-20T05:48:57;98741.34;;;10.79;61.19
40574;BME280;26283;49.020;8.644;2022-11-20T05:51:23;98735.94;;;10.79;61.19
40574;BME280;26283;49.020;8.644;2022-11-20T05:53:49;98729.50;;;10.80;61.17
40574;BME280;26283;49.020;8.644;2022-11-20T05:56:18;98729.50;;;10.80;61.17
40574;BME280;26283;49.020;8.644;2022-11-20T05:58:44;98727.87;;;10.79;61.18
40574;BME280;26283;49.020;8.644;2022-11-20T06:01:16;98732.19;;;10.80;61.16
40574;BME280;26283;49.020;8.644;2022-11-20T06:03:42;98735.94;;;10.79;61.16
40574;BME280;26283;49.020;8.644;2022-11-20T06:06:11;98735.13;;;10.79;61.15
40574;BME280;26283;49.020;8.644;2022-11-20T06:08:37;98739.47;;;10.80;61.15
40574;BME280;26283;49.020;8.644;2022-11-20T06:11:08;98734.06;;;10.80;61.14
40574;BME280;26283;49.020;8.644;2022-11-20T06:13:33;98742.97;;;10.80;61.14
40574;BME280;26283;49.020;8.644;2022-11-20T06:15:59;98727.87;;;10.79;61.13
40574;BME280;26283;49.020;8.644;2022-11-20T06:18:26;98734.06;;;10.80;61.13
40574;BME280;26283;49.020;8.644;2022-11-20T06:21:06;98739.69;;;10.78;61.12
40574;BME280;26283;49.020;8.644;2022-11-20T06:23:33;98735.94;;;10.79;61.13
40574;BME280;26283;49.020;8.644;2022-11-20T06:26:22;98735.34;;;10.77;61.11
40574;BME280;26283;49.020;8.644;2022-11-20T06:28:49;98731.84;;;10.77;61.17
40574;BME280;26283;49.020;8.644;2022-11-20T06:31:17;98733.47;;;10.78;61.10
40574;BME280;26283;49.020;8.644;2022-11-20T06:33:43;98733.47;;;10.78;61.10
40574;BME280;26283;49.020;8.644;2022-11-20T06:36:10;98734.31;;;10.78;61.10
40574;BME280;26283;49.020;8.644;2022-11-20T06:38:36;98732.66;;;10.77;61.10
40574;BME280;26283;49.020;8.644;2022-11-20T06:41:03;98736.19;;;10.78;61.08
40574;BME280;26283;49.020;8.644;2022-11-20T06:43:29;98733.47;;;10.78;61.07
40574;BME280;26283;49.020;8.644;2022-11-20T06:45:56;98735.34;;;10.77;61.08
40574;BME280;26283;49.020;8.644;2022-11-20T06:48:23;98733.47;;;10.78;61.06
40574;BME280;26283;49.020;8.644;2022-11-20T06:50:48;98745.09;;;10.78;61.05
40574;BME280;26283;49.020;8.644;2022-11-20T06:53:14;98739.69;;;10.78;61.04
40574;BME280;26283;49.020;8.644;2022-11-20T06:55:46;98748.81;;;10.77;61.05
40574;BME280;26283;49.020;8.644;2022-11-20T06:58:13;98737.22;;;10.77;61.05
40574;BME280;26283;49.020;8.644;2022-11-20T07:00:39;98748.81;;;10.77;61.04
40574;BME280;26283;49.020;8.644;2022-11-20T07:03:05;98754.22;;;10.77;61.04
40574;BME280;26283;49.020;8.644;2022-11-20T07:05:32;98753.41;;;10.77;61.05
40574;BME280;26283;49.020;8.644;2022-11-20T07:07:58;98757.75;;;10.78;61.04
40574;BME280;26283;49.020;8.644;2022-11-20T07:10:24;98756.09;;;10.77;61.05
40574;BME280;26283;49.020;8.644;2022-11-20T07:12:50;98762.31;;;10.77;61.04
40574;BME280;26283;49.020;8.644;2022-11-20T07:15:16;98759.59;;;10.77;61.03
40574;BME280;26283;49.020;8.644;2022-11-20T07:17:42;98764.19;;;10.77;61.03
40574;BME280;26283;49.020;8.644;2022-11-20T07:20:10;98773.91;;;10.78;61.02
40574;BME280;26283;49.020;8.644;2022-11-20T07:22:36;98766.06;;;10.76;61.02
40574;BME280;26283;49.020;8.644;2022-11-20T07:25:02;98771.22;;;10.78;61.01
40574;BME280;26283;49.020;8.644;2022-11-20T07:27:29;98771.22;;;10.78;61.01
40574;BME280;26283;49.020;8.644;2022-11-20T07:29:54;98771.22;;;10.78;61.01
40574;BME280;26283;49.020;8.644;2022-11-20T07:32:20;98767.69;;;10.77;61.01
40574;BME280;26283;49.020;8.644;2022-11-20T07:34:46;98765.81;;;10.78;61.00
40574;BME280;26283;49.020;8.644;2022-11-20T07:37:11;98766.87;;;10.77;61.02
40574;BME280;26283;49.020;8.644;2022-11-20T07:39:37;98784.91;;;10.76;61.04
40574;BME280;26283;49.020;8.644;2022-11-20T07:42:02;98777.88;;;10.75;61.05
40574;BME280;26283;49.020;8.644;2022-11-20T07:44:28;98775.19;;;10.75;61.06
40574;BME280;26283;49.020;8.644;2022-11-20T07:46:53;98779.53;;;10.76;61.06
40574;BME280;26283;49.020;8.644;2022-11-20T07:49:18;98778.72;;;10.76;61.08
40574;BME280;26283;49.020;8.644;2022-11-20T07:51:44;98783.28;;;10.75;61.09
40574;BME280;26283;49.020;8.644;2022-11-20T07:54:15;98777.88;;;10.75;61.11
40574;BME280;26283;49.020;8.644;2022-11-20T07:56:40;98784.09;;;10.76;61.15
40574;BME280;26283;49.020;8.644;2022-11-20T07:59:05;98789.50;;;10.76;61.16
40574;BME280;26283;49.020;8.644;2022-11-20T08:01:31;98787.63;;;10.76;61.18
40574;BME280;26283;49.020;8.644;2022-11-20T08:03:56;98791.13;;;10.77;61.20
40574;BME280;26283;49.020;8.644;2022-11-20T08:06:21;98795.69;;;10.76;61.23
40574;BME280;26283;49.020;8.644;2022-11-20T08:08:47;98790.31;;;10.76;61.25
40574;BME280;26283;49.020;8.644;2022-11-20T08:11:12;98790.31;;;10.76;61.27
40574;BME280;26283;49.020;8.644;2022-11-20T08:13:56;98802.72;;;10.77;61.30
40574;BME280;26283;49.020;8.644;2022-11-20T08:16:40;98808.12;;;10.77;61.32
40574;BME280;26283;49.020;8.644;2022-11-20T08:19:06;98797.56;;;10.76;61.39
40574;BME280;26283;49.020;8.644;2022-11-20T08:21:31;98798.38;;;10.76;61.43
40574;BME280;26283;49.020;8.644;2022-11-20T08:23:57;98795.94;;;10.75;61.46
40574;BME280;26283;49.020;8.644;2022-11-20T08:26:23;98804.84;;;10.75;61.50
40574;BME280;26283;49.020;8.644;2022-11-20T08:28:52;98803.78;;;10.76;61.53
40574;BME280;26283;49.020;8.644;2022-11-20T08:31:18;98810.22;;;10.75;61.56
40574;BME280;26283;49.020;8.644;2022-11-20T08:33:43;98810.22;;;10.75;61.59
40574;BME280;26283;49.020;8.644;2022-11-20T08:36:08;98816.44;;;10.76;61.63
40574;BME280;26283;49.020;8.644;2022-11-20T08:38:34;98811.03;;;10.76;61.66
40574;BME280;26283;49.020;8.644;2022-11-20T08:41:00;98818.31;;;10.75;61.70
40574;BME280;26283;49.020;8.644;2022-11-20T08:43:45;98813.97;;;10.74;61.71
40574;BME280;26283;49.020;8.644;2022-11-20T08:46:10;98821.00;;;10.75;61.71
40574;BME280;26283;49.020;8.644;2022-11-20T08:48:36;98820.19;;;10.75;61.73
40574;BME280;26283;49.020;8.644;2022-11-20T08:51:01;98824.75;;;10.74;61.77
40574;BME280;26283;49.020;8.644;2022-11-20T08:53:27;98820.41;;;10.73;61.81
40574;BME280;26283;49.020;8.644;2022-11-20T08:55:53;98830.13;;;10.74;61.83
40574;BME280;26283;49.020;8.644;2022-11-20T08:58:18;98830.97;;;10.75;61.85
40574;BME280;26283;49.020;8.644;2022-11-20T09:00:43;98823.69;;;10.75;61.86
40574;BME280;26283;49.020;8.644;2022-11-20T09:03:09;98831.19;;;10.73;61.88
40574;BME280;26283;49.020;8.644;2022-11-20T09:05:34;98841.75;;;10.75;61.91
40574;BME280;26283;49.020;8.644;2022-11-20T09:08:02;98837.19;;;10.75;61.92
40574;BME280;26283;49.020;8.644;2022-11-20T09:10:27;98846.91;;;10.76;61.93
40574;BME280;26283;49.020;8.644;2022-11-20T09:12:53;98843.37;;;10.76;61.96
40574;BME280;26283;49.020;8.644;2022-11-20T09:15:20;98846.09;;;10.76;61.97
40574;BME280;26283;49.020;8.644;2022-11-20T09:17:59;98845.03;;;10.77;61.97
40574;BME280;26283;49.020;8.644;2022-11-20T09:20:26;98845.25;;;10.75;62.01
40574;BME280;26283;49.020;8.644;2022-11-20T09:22:51;98841.75;;;10.75;62.01
40574;BME280;26283;49.020;8.644;2022-11-20T09:25:20;98849.81;;;10.75;62.06
40574;BME280;26283;49.020;8.644;2022-11-20T09:27:46;98856.84;;;10.76;62.09
40574;BME280;26283;49.020;8.644;2022-11-20T09:30:13;98861.44;;;10.75;62.10
40574;BME280;26283;49.020;8.644;2022-11-20T09:32:39;98864.13;;;10.75;62.12
40574;BME280;26283;49.020;8.644;2022-11-20T09:35:05;98854.16;;;10.76;62.14
40574;BME280;26283;49.020;8.644;2022-11-20T09:37:31;98853.34;;;10.75;62.17
40574;BME280;26283;49.020;8.644;2022-11-20T09:39:56;98854.16;;;10.76;62.19
40574;BME280;26283;49.020;8.644;2022-11-20T09:42:31;98855.00;;;10.76;62.23
40574;BME280;26283;49.020;8.644;2022-11-20T09:47:58;98853.13;;;10.77;62.29
40574;BME280;26283;49.020;8.644;2022-11-20T09:50:50;98850.41;;;10.77;62.32
40574;BME280;26283;49.020;8.644;2022-11-20T09:53:46;98854.16;;;10.76;62.34
40574;BME280;26283;49.020;8.644;2022-11-20T09:56:15;98852.28;;;10.76;62.37
40574;BME280;26283;49.020;8.644;2022-11-20T09:58:48;98850.66;;;10.75;62.37
40574;BME280;26283;49.020;8.644;2022-11-20T10:01:19;98853.34;;;10.75;62.41
40574;BME280;26283;49.020;8.644;2022-11-20T10:14:39;98866.00;;;10.75;62.63
40574;BME280;26283;49.020;8.644;2022-11-20T10:19:51;98872.44;;;10.74;62.64
40574;BME280;26283;49.020;8.644;2022-11-20T10:24:59;98874.09;;;10.75;62.68
40574;BME280;26283;49.020;8.644;2022-11-20T10:30:18;98864.13;;;10.75;62.67
40574;BME280;26283;49.020;8.644;2022-11-20T10:32:59;98859.78;;;10.74;62.67
40574;BME280;26283;49.020;8.644;2022-11-20T10:35:48;98867.88;;;10.74;62.74
40574;BME280;26283;49.020;8.644;2022-11-20T10:38:33;98857.09;;;10.74;62.75
40574;BME280;26283;49.020;8.644;2022-11-20T10:41:07;98858.97;;;10.74;62.75
40574;BME280;26283;49.020;8.644;2022-11-20T10:44:17;98856.84;;;10.76;62.79
40574;BME280;26283;49.020;8.644;2022-11-20T10:47:12;98852.28;;;10.76;62.80
40574;BME280;26283;49.020;8.644;2022-11-20T10:49:52;98843.63;;;10.74;62.78
40574;BME280;26283;49.020;8.644;2022-11-20T10:58:27;98840.91;;;10.74;62.96
40574;BME280;26283;49.020;8.644;2022-11-20T11:01:26;98835.53;;;10.74;62.98
40574;BME280;26283;49.020;8.644;2022-11-20T11:03:53;98834.25;;;10.77;63.08
40574;BME280;26283;49.020;8.644;2022-11-20T11:06:42;98828.88;;;10.77;63.08
40574;BME280;26283;49.020;8.644;2022-11-20T11:09:17;98832.38;;;10.77;63.19
40574;BME280;26283;49.020;8.644;2022-11-20T11:11:44;98820.78;;;10.77;63.14
40574;BME280;26283;49.020;8.644;2022-11-20T11:14:15;98817.25;;;10.76;63.14
40574;BME280;26283;49.020;8.644;2022-11-20T11:16:57;98816.22;;;10.77;63.20
40574;BME280;26283;49.020;8.644;2022-11-20T11:19:23;98812.47;;;10.78;63.19
40574;BME280;26283;49.020;8.644;2022-11-20T11:21:52;98811.63;;;10.78;63.17
40574;BME280;26283;49.020;8.644;2022-11-20T11:24:22;98809.75;;;10.78;63.17
40574;BME280;26283;49.020;8.644;2022-11-20T11:27:10;98799.81;;;10.79;63.18
40574;BME280;26283;49.020;8.644;2022-11-20T11:29:36;98799.81;;;10.79;63.20
40574;BME280;26283;49.020;8.644;2022-11-20T11:34:42;98782.59;;;10.80;63.14
40574;BME280;26283;49.020;8.644;2022-11-20T11:37:18;98786.09;;;10.80;63.11
40574;BME280;26283;49.020;8.644;2022-11-20T11:39:46;98779.66;;;10.81;63.15
40574;BME280;26283;49.020;8.644;2022-11-20T11:42:17;98773.22;;;10.82;63.11
40574;BME280;26283;49.020;8.644;2022-11-20T11:44:45;98768.38;;;10.84;63.10
40574;BME280;26283;49.020;8.644;2022-11-20T11:47:31;98770.62;;;10.87;63.00
40574;BME280;26283;49.020;8.644;2022-11-20T11:53:15;98761.38;;;10.95;62.81
40574;BME280;26283;49.020;8.644;2022-11-20T11:58:34;98769.47;;;10.95;62.73
40574;BME280;26283;49.020;8.644;2022-11-20T12:03:45;98759.75;;;10.94;62.85
40574;BME280;26283;49.020;8.644;2022-11-20T12:06:16;98762.66;;;10.92;62.85
40574;BME280;26283;49.020;8.644;2022-11-20T12:08:57;98747.53;;;10.91;62.85
40574;BME280;26283;49.020;8.644;2022-11-20T12:16:37;98758.47;;;10.96;62.80
40574;BME280;26283;49.020;8.644;2022-11-20T12:19:10;98755.31;;;10.99;62.69
40574;BME280;26283;49.020;8.644;2022-11-20T12:47:27;98756.94;;;11.12;62.10
40574;BME280;26283;49.020;8.644;2022-11-20T12:53:05;98745.31;;;11.12;62.19
40574;BME280;26283;49.020;8.644;2022-11-20T13:01:40;98742.16;;;11.15;62.00
40574;BME280;26283;49.020;8.644;2022-11-20T13:04:47;98756.81;;;11.19;61.93
40574;BME280;26283;49.020;8.644;2022-11-20T13:07:14;98737.47;;;11.22;61.85
40574;BME280;26283;49.020;8.644;2022-11-20T13:09:50;98743.47;;;11.24;61.72
40574;BME280;26283;49.020;8.644;2022-11-20T13:18:08;98736.50;;;11.28;61.49
40574;BME280;26283;49.020;8.644;2022-11-20T13:20:35;98733.81;;;11.28;61.43
40574;BME280;26283;49.020;8.644;2022-11-20T13:23:10;98729.47;;;11.27;61.25
40574;BME280;26283;49.020;8.644;2022-11-20T13:25:38;98720.84;;;11.25;61.22
40574;BME280;26283;49.020;8.644;2022-11-20T13:30:36;98726.53;;;11.28;61.20
40574;BME280;26283;49.020;8.644;2022-11-20T13:33:29;98703.91;;;11.29;61.10
40574;BME280;26283;49.020;8.644;2022-11-20T13:36:00;98709.66;;;11.33;60.96
40574;BME280;26283;49.020;8.644;2022-11-20T13:38:27;98708.84;;;11.32;60.85
40574;BME280;26283;49.020;8.644;2022-11-20T13:40:57;98715.88;;;11.33;60.77
40574;BME280;26283;49.020;8.644;2022-11-20T13:43:37;98706.37;;;11.31;60.72
40574;BME280;26283;49.020;8.644;2022-11-20T13:46:07;98706.84;;;11.28;60.77
40574;BME280;26283;49.020;8.644;2022-11-20T13:48:40;98711.41;;;11.27;60.65
40574;BME280;26283;49.020;8.644;2022-11-20T13:56:54;98706.53;;;11.24;60.62
40574;BME280;26283;49.020;8.644;2022-11-20T14:02:01;98703.56;;;11.26;60.60
40574;BME280;26283;49.020;8.644;2022-11-20T14:04:31;98704.38;;;11.26;60.33
40574;BME280;26283;49.020;8.644;2022-11-20T14:07:05;98700.88;;;11.26;60.14
40574;BME280;26283;49.020;8.644;2022-11-20T14:09:35;98699.25;;;11.25;60.09
40574;BME280;26283;49.020;8.644;2022-11-20T14:12:04;98694.09;;;11.23;59.98
40574;BME280;26283;49.020;8.644;2022-11-20T14:14:50;98694.09;;;11.23;59.88
40574;BME280;26283;49.020;8.644;2022-11-20T14:17:29;98686.22;;;11.22;59.88
40574;BME280;26283;49.020;8.644;2022-11-20T14:19:58;98684.59;;;11.21;59.92
40574;BME280;26283;49.020;8.644;2022-11-20T14:22:26;98684.59;;;11.21;59.93
40574;BME280;26283;49.020;8.644;2022-11-20T14:27:58;98687.28;;;11.21;59.90
40574;BME280;26283;49.020;8.644;2022-11-20T14:30:45;98690.81;;;11.21;59.84
40574;BME280;26283;49.020;8.644;2022-11-20T14:33:15;98678.38;;;11.20;59.82
40574;BME280;26283;49.020;8.644;2022-11-20T14:36:05;98678.16;;;11.22;59.75
40574;BME280;26283;49.020;8.644;2022-11-20T14:38:34;98670.28;;;11.20;59.69
40574;BME280;26283;49.020;8.644;2022-11-20T14:41:08;98674.63;;;11.21;59.65
40574;BME280;26283;49.020;8.644;2022-11-20T14:43:34;98660.31;;;11.21;59.60
40574;BME280;26283;49.020;8.644;2022-11-20T14:46:05;98660.09;;;11.22;59.54
40574;BME280;26283;49.020;8.644;2022-11-20T14:48:38;98656.56;;;11.22;59.50
40574;BME280;26283;49.020;8.644;2022-11-20T14:51:04;98662.78;;;11.22;59.43
40574;BME280;26283;49.020;8.644;2022-11-20T14:53:30;98655.75;;;11.21;59.39
40574;BME280;26283;49.020;8.644;2022-11-20T14:55:58;98667.13;;;11.23;59.28